createdAt,value
2023-02-22T00:01:42.985Z,8.54
2023-02-22T00:04:11.047Z,8.44
2023-02-22T00:06:37.829Z,8.45
2023-02-22T00:09:05.007Z,8.50
2023-02-22T00:11:31.815Z,8.45
2023-02-22T00:13:59.036Z,8.39
2023-02-22T00:16:26.773Z,8.37
2023-02-22T00:18:54.566Z,8.30
2023-02-22T00:21:21.841Z,8.22
2023-02-22T00:23:49.652Z,8.14
2023-02-22T00:26:21.506Z,8.21
2023-02-22T00:28:50.929Z,8.19
2023-02-22T00:31:19.536Z,8.08
2023-02-22T00:33:46.767Z,8.11
2023-02-22T00:36:14.310Z,8.04
2023-02-22T00:38:42.043Z,7.98
2023-02-22T00:41:09.986Z,7.96
2023-02-22T00:43:37.045Z,7.94
2023-02-22T00:46:04.068Z,8.01
2023-02-22T00:48:31.155Z,8.09
2023-02-22T00:50:57.993Z,8.03
2023-02-22T00:53:26.300Z,8.00
2023-02-22T00:55:54.145Z,7.96
2023-02-22T00:58:21.619Z,7.95
2023-02-22T01:00:49.850Z,7.90
2023-02-22T01:03:20.024Z,8.01
2023-02-22T01:05:47.536Z,7.97
2023-02-22T01:08:16.327Z,7.98
2023-02-22T01:10:43.858Z,7.94
2023-02-22T01:13:12.825Z,8.00
2023-02-22T01:15:42.785Z,8.02
2023-02-22T01:18:12.593Z,8.03
2023-02-22T01:20:39.559Z,8.14
2023-02-22T01:23:08.067Z,8.16
2023-02-22T01:25:35.815Z,8.15
2023-02-22T01:28:04.938Z,8.19
2023-02-22T01:30:34.558Z,8.24
2023-02-22T01:33:04.013Z,8.32
2023-02-22T01:35:34.361Z,8.21
2023-02-22T01:38:01.669Z,8.27
2023-02-22T01:40:34.217Z,8.28
2023-02-22T01:43:14.642Z,8.28
2023-02-22T01:45:50.051Z,8.16
2023-02-22T01:48:24.897Z,8.17
2023-02-22T01:50:57.237Z,8.11
2023-02-22T01:53:30.440Z,8.08
2023-02-22T01:55:58.510Z,8.08
2023-02-22T01:58:28.633Z,8.03
2023-02-22T02:00:55.839Z,8.09
2023-02-22T02:03:27.739Z,8.09
2023-02-22T02:05:59.006Z,8.08
2023-02-22T02:08:36.836Z,8.11
2023-02-22T02:11:08.689Z,8.11
2023-02-22T02:13:36.766Z,8.23
2023-02-22T02:16:03.998Z,8.21
2023-02-22T02:18:32.598Z,8.32
2023-02-22T02:21:14.745Z,8.31
2023-02-22T02:23:55.083Z,8.29
2023-02-22T02:26:40.601Z,8.30
2023-02-22T02:29:40.876Z,8.26
2023-02-22T02:32:30.041Z,8.21
2023-02-22T02:35:23.162Z,8.19
2023-02-22T02:38:12.149Z,8.25
2023-02-22T02:40:47.648Z,8.22
2023-02-22T02:43:51.928Z,8.17
2023-02-22T02:46:32.387Z,8.11
2023-02-22T02:49:04.559Z,8.04
2023-02-22T02:51:36.666Z,7.99
2023-02-22T02:54:05.839Z,7.91
2023-02-22T02:56:33.444Z,7.87
2023-02-22T02:59:00.253Z,7.96
2023-02-22T03:01:56.355Z,7.95
2023-02-22T03:04:34.397Z,8.06
2023-02-22T03:07:20.268Z,8.08
2023-02-22T03:09:54.787Z,8.08
2023-02-22T03:12:53.655Z,8.12
2023-02-22T03:15:40.065Z,8.11
2023-02-22T03:18:22.906Z,8.10
2023-02-22T03:21:00.317Z,8.10
2023-02-22T03:23:37.527Z,8.13
2023-02-22T03:26:19.441Z,8.14
2023-02-22T03:28:49.088Z,8.16
2023-02-22T03:31:29.745Z,8.21
2023-02-22T03:34:02.732Z,8.23
2023-02-22T03:36:33.915Z,8.20
2023-02-22T03:39:04.342Z,8.18
2023-02-22T03:41:33.336Z,8.18
2023-02-22T03:44:03.145Z,8.17
2023-02-22T03:46:31.591Z,8.19
2023-02-22T03:49:35.000Z,8.16
2023-02-22T03:52:03.896Z,8.13
2023-02-22T03:54:32.177Z,8.13
2023-02-22T03:57:15.123Z,8.09
2023-02-22T03:59:43.006Z,8.12
2023-02-22T04:02:09.773Z,8.16
2023-02-22T04:04:36.890Z,8.16
2023-02-22T04:07:03.747Z,8.16
2023-02-22T04:09:30.854Z,8.17
2023-02-22T04:11:57.646Z,8.21
2023-02-22T04:14:24.709Z,8.28
2023-02-22T04:16:51.543Z,8.31
2023-02-22T04:19:18.642Z,8.27
2023-02-22T04:21:45.432Z,8.25
2023-02-22T04:24:12.556Z,8.24
2023-02-22T04:26:39.325Z,8.24
2023-02-22T04:29:06.545Z,8.23
2023-02-22T04:31:36.224Z,8.16
2023-02-22T04:34:03.601Z,8.14
2023-02-22T04:36:31.889Z,8.10
2023-02-22T04:38:59.777Z,8.11
2023-02-22T04:41:26.744Z,8.11
2023-02-22T04:43:54.018Z,8.07
2023-02-22T04:46:20.933Z,8.07
2023-02-22T04:48:48.078Z,7.99
2023-02-22T04:51:15.710Z,7.94
2023-02-22T04:53:42.983Z,7.82
2023-02-22T04:56:09.799Z,7.77
2023-02-22T04:58:36.883Z,7.70
2023-02-22T05:01:04.012Z,7.64
2023-02-22T05:03:31.807Z,7.57
2023-02-22T05:05:58.810Z,7.60
2023-02-22T05:08:25.859Z,7.51
2023-02-22T05:10:52.645Z,7.51
2023-02-22T05:13:19.888Z,7.44
2023-02-22T05:15:47.840Z,7.46
2023-02-22T05:18:16.353Z,7.48
2023-02-22T05:20:43.166Z,7.49
2023-02-22T05:23:10.384Z,7.41
2023-02-22T05:25:37.200Z,7.43
2023-02-22T05:28:12.681Z,7.32
2023-02-22T05:30:40.177Z,7.23
2023-02-22T05:33:08.323Z,7.15
2023-02-22T05:35:35.137Z,7.14
2023-02-22T05:38:03.732Z,7.09
2023-02-22T05:40:31.639Z,7.04
2023-02-22T05:42:59.452Z,7.02
2023-02-22T05:45:27.604Z,7.01
2023-02-22T05:47:55.404Z,6.94
2023-02-22T05:50:22.446Z,6.95
2023-02-22T05:52:49.555Z,6.97
2023-02-22T05:55:18.836Z,7.00
2023-02-22T05:57:48.333Z,7.07
2023-02-22T06:00:19.956Z,7.19
2023-02-22T06:02:47.021Z,7.25
2023-02-22T06:05:14.028Z,7.33
2023-02-22T06:07:41.085Z,7.41
2023-02-22T06:10:08.472Z,7.57
2023-02-22T06:12:35.542Z,7.68
2023-02-22T06:15:02.693Z,7.77
2023-02-22T06:17:30.483Z,7.81
2023-02-22T06:19:57.575Z,7.86
2023-02-22T06:22:24.594Z,7.96
2023-02-22T06:24:52.214Z,7.98
2023-02-22T06:27:20.488Z,8.07
2023-02-22T06:29:48.056Z,8.16
2023-02-22T06:32:15.119Z,8.18
2023-02-22T06:34:42.004Z,8.27
2023-02-22T06:37:09.080Z,8.39
2023-02-22T06:39:35.814Z,8.35
2023-02-22T06:42:02.958Z,8.41
2023-02-22T06:44:29.819Z,8.51
2023-02-22T06:46:56.956Z,8.60
2023-02-22T06:49:23.841Z,8.71
2023-02-22T06:51:50.999Z,8.73
2023-02-22T06:54:17.820Z,8.87
2023-02-22T06:56:45.305Z,8.98
2023-02-22T06:59:12.102Z,9.11
2023-02-22T07:01:42.926Z,9.15
2023-02-22T07:04:10.304Z,9.20
2023-02-22T07:06:37.576Z,9.19
2023-02-22T07:09:04.394Z,9.17
2023-02-22T07:11:31.663Z,9.22
2023-02-22T07:13:58.446Z,9.20
2023-02-22T07:16:25.551Z,9.36
2023-02-22T07:18:52.380Z,9.38
2023-02-22T07:21:19.594Z,9.43
2023-02-22T07:23:57.045Z,9.47
2023-02-22T07:26:24.685Z,9.45
2023-02-22T07:28:51.646Z,9.52
2023-02-22T07:31:18.954Z,9.64
2023-02-22T07:33:49.445Z,9.70
2023-02-22T07:36:18.104Z,9.77
2023-02-22T07:38:45.675Z,9.95
2023-02-22T07:41:13.185Z,10.01
2023-02-22T07:43:39.995Z,10.14
2023-02-22T07:46:07.113Z,10.34
2023-02-22T07:48:33.949Z,10.49
2023-02-22T07:51:01.032Z,10.63
2023-02-22T07:53:30.604Z,10.85
2023-02-22T07:55:58.613Z,10.84
2023-02-22T07:58:27.385Z,10.76
2023-02-22T08:00:54.868Z,10.91
2023-02-22T08:03:24.169Z,11.02
2023-02-22T08:05:56.939Z,11.17
2023-02-22T08:08:24.324Z,11.38
2023-02-22T08:10:52.162Z,11.48
2023-02-22T08:13:20.886Z,11.61
2023-02-22T08:15:50.456Z,11.67
2023-02-22T08:18:19.697Z,11.78
2023-02-22T08:20:49.455Z,11.90
2023-02-22T08:23:17.250Z,12.11
2023-02-22T08:25:44.589Z,12.18
2023-02-22T08:28:15.138Z,12.18
2023-02-22T08:30:43.764Z,12.32
2023-02-22T08:33:16.811Z,12.39
2023-02-22T08:35:44.042Z,12.52
2023-02-22T08:38:19.857Z,12.55
2023-02-22T08:40:50.983Z,12.73
2023-02-22T08:43:19.601Z,12.78
2023-02-22T08:45:47.587Z,12.63
2023-02-22T08:48:16.007Z,12.84
2023-02-22T08:50:44.471Z,12.88
2023-02-22T08:53:13.632Z,12.79
2023-02-22T08:55:42.000Z,12.82
2023-02-22T08:58:10.044Z,12.79
2023-02-22T09:00:39.184Z,12.72
2023-02-22T09:03:09.487Z,12.72
2023-02-22T09:05:36.760Z,12.65
2023-02-22T09:08:04.526Z,12.53
2023-02-22T09:10:33.731Z,12.56
2023-02-22T09:13:01.456Z,12.57
2023-02-22T09:15:29.891Z,12.67
2023-02-22T09:17:57.138Z,12.72
2023-02-22T09:20:25.419Z,12.81
2023-02-22T09:22:53.473Z,12.89
2023-02-22T09:25:21.769Z,12.79
2023-02-22T09:27:51.336Z,12.84
2023-02-22T09:30:34.187Z,12.76
2023-02-22T09:33:04.059Z,12.75
2023-02-22T09:35:31.426Z,12.80
2023-02-22T09:38:00.282Z,12.79
2023-02-22T09:40:30.546Z,12.83
2023-02-22T09:43:16.394Z,13.01
2023-02-22T09:46:13.623Z,12.89
2023-02-22T09:48:52.694Z,12.98
2023-02-22T09:51:21.782Z,13.14
2023-02-22T09:53:52.329Z,13.38
2023-02-22T09:56:20.950Z,13.51
2023-02-22T09:58:52.697Z,13.63
2023-02-22T10:01:35.007Z,13.75
2023-02-22T10:04:36.634Z,13.85
2023-02-22T10:07:30.816Z,14.14
2023-02-22T10:09:58.705Z,14.16
2023-02-22T10:12:33.773Z,13.96
2023-02-22T10:15:18.737Z,14.10
2023-02-22T10:18:16.609Z,13.84
2023-02-22T10:20:57.785Z,14.16
2023-02-22T10:23:42.843Z,14.35
2023-02-22T10:26:17.735Z,14.02
2023-02-22T10:28:47.738Z,15.02
2023-02-22T10:31:42.358Z,15.43
2023-02-22T10:34:33.349Z,15.22
2023-02-22T10:37:23.955Z,16.15
2023-02-22T10:39:56.885Z,16.15
2023-02-22T10:42:27.228Z,16.79
2023-02-22T10:44:54.441Z,16.08
2023-02-22T10:47:22.168Z,14.65
2023-02-22T10:49:53.637Z,14.83
2023-02-22T10:52:40.813Z,14.26
2023-02-22T10:55:15.545Z,13.98
2023-02-22T10:57:46.580Z,13.83
2023-02-22T11:00:20.910Z,13.76
2023-02-22T11:02:57.233Z,13.79
2023-02-22T11:05:32.409Z,13.48
2023-02-22T11:08:20.674Z,12.92
2023-02-22T11:10:54.409Z,12.92
2023-02-22T11:13:26.521Z,13.09
2023-02-22T11:16:00.779Z,13.19
2023-02-22T11:18:31.942Z,13.21
2023-02-22T11:21:12.458Z,12.99
2023-02-22T11:23:44.295Z,13.09
2023-02-22T11:26:16.833Z,13.02
2023-02-22T11:28:51.016Z,13.10
2023-02-22T11:31:22.460Z,13.04
2023-02-22T11:34:02.113Z,13.14
2023-02-22T11:36:30.945Z,12.98
2023-02-22T11:39:00.750Z,13.05
2023-02-22T11:41:30.642Z,12.98
2023-02-22T11:44:21.687Z,13.04
2023-02-22T11:46:49.547Z,12.65
2023-02-22T11:49:17.689Z,12.29
2023-02-22T11:51:53.752Z,12.34
2023-02-22T11:54:33.528Z,12.49
2023-02-22T11:57:42.405Z,12.58
2023-02-22T12:00:24.639Z,12.59
2023-02-22T12:03:28.693Z,12.64
2023-02-22T12:06:10.587Z,12.33
2023-02-22T12:08:46.607Z,12.25
2023-02-22T12:11:41.080Z,12.39
2023-02-22T12:14:14.156Z,12.41
2023-02-22T12:17:30.919Z,12.47
2023-02-22T12:20:10.295Z,12.59
2023-02-22T12:22:43.471Z,12.42
2023-02-22T12:25:21.572Z,12.47
2023-02-22T12:27:57.174Z,12.53
2023-02-22T12:30:28.917Z,12.53
2023-02-22T12:33:00.236Z,12.67
2023-02-22T12:35:34.828Z,12.65
2023-02-22T12:38:13.584Z,12.59
2023-02-22T12:40:58.897Z,12.43
2023-02-22T12:44:01.699Z,12.42
2023-02-22T12:46:44.158Z,12.44
2023-02-22T12:49:41.548Z,12.33
2023-02-22T12:52:42.151Z,12.43
2023-02-22T12:55:21.314Z,12.52
2023-02-22T12:57:59.541Z,12.45
2023-02-22T13:00:34.624Z,12.44
2023-02-22T13:03:13.381Z,12.52
2023-02-22T13:05:52.279Z,12.53
2023-02-22T13:08:25.443Z,12.61
2023-02-22T13:10:58.263Z,12.48
2023-02-22T13:13:33.713Z,12.58
2023-02-22T13:16:27.448Z,12.28
2023-02-22T13:18:58.404Z,12.20
2023-02-22T13:21:49.597Z,12.03
2023-02-22T13:24:23.713Z,12.23
2023-02-22T13:27:23.129Z,12.32
2023-02-22T13:29:57.456Z,12.21
2023-02-22T13:33:07.854Z,12.20
2023-02-22T13:35:48.769Z,12.47
2023-02-22T13:38:26.188Z,12.56
2023-02-22T13:41:15.572Z,12.66
2023-02-22T13:43:52.223Z,12.17
2023-02-22T13:46:44.156Z,12.11
2023-02-22T13:49:29.501Z,12.25
2023-02-22T13:52:13.181Z,12.20
2023-02-22T13:54:47.039Z,12.13
2023-02-22T13:57:38.023Z,12.32
2023-02-22T14:00:18.097Z,12.44
2023-02-22T14:03:08.989Z,12.28
2023-02-22T14:05:49.742Z,12.27
2023-02-22T14:08:19.961Z,12.35
2023-02-22T14:10:51.170Z,12.51
2023-02-22T14:13:23.513Z,12.56
2023-02-22T14:16:02.527Z,12.71
2023-02-22T14:18:35.153Z,12.56
2023-02-22T14:21:07.805Z,12.48
2023-02-22T14:23:42.181Z,12.50
2023-02-22T14:26:14.052Z,12.45
2023-02-22T14:28:52.515Z,12.63
2023-02-22T14:31:36.077Z,12.32
2023-02-22T14:34:06.405Z,12.23
2023-02-22T14:36:51.908Z,12.12
2023-02-22T14:39:51.503Z,12.15
2023-02-22T14:42:21.382Z,12.35
2023-02-22T14:44:48.909Z,12.18
2023-02-22T14:47:29.588Z,12.24
2023-02-22T14:50:13.080Z,12.22
2023-02-22T14:52:43.336Z,11.97
2023-02-22T14:55:20.056Z,12.02
2023-02-22T14:57:59.303Z,12.11
2023-02-22T15:00:38.279Z,12.19
2023-02-22T15:03:05.113Z,12.14
2023-02-22T15:05:38.553Z,12.09
2023-02-22T15:08:08.358Z,12.13
2023-02-22T15:10:45.829Z,12.17
2023-02-22T15:13:27.159Z,12.21
2023-02-22T15:16:01.803Z,12.22
2023-02-22T15:18:41.735Z,12.15
2023-02-22T15:21:17.927Z,12.10
2023-02-22T15:23:54.875Z,11.98
2023-02-22T15:26:37.279Z,11.98
2023-02-22T15:29:15.295Z,11.93
2023-02-22T15:31:48.329Z,11.96
2023-02-22T15:34:15.467Z,11.87
2023-02-22T15:36:44.888Z,11.92
2023-02-22T15:39:43.803Z,11.91
2023-02-22T15:42:20.885Z,11.97
2023-02-22T15:44:49.910Z,12.00
2023-02-22T15:47:22.681Z,12.02
2023-02-22T15:50:17.593Z,12.00
2023-02-22T15:53:21.665Z,11.97
2023-02-22T15:55:55.057Z,11.84
2023-02-22T15:58:23.896Z,11.95
2023-02-22T16:01:01.184Z,11.97
2023-02-22T16:03:45.001Z,11.84
2023-02-22T16:06:35.597Z,11.99
2023-02-22T16:09:14.772Z,12.00
2023-02-22T16:11:46.657Z,11.93
2023-02-22T16:14:42.925Z,11.86
2023-02-22T16:17:24.803Z,11.87
2023-02-22T16:19:53.025Z,11.88
2023-02-22T16:22:35.446Z,11.91
2023-02-22T16:25:21.618Z,11.76
2023-02-22T16:27:59.827Z,11.79
2023-02-22T16:30:32.423Z,11.55
2023-02-22T16:33:00.896Z,11.65
2023-02-22T16:35:29.400Z,11.55
2023-02-22T16:38:00.481Z,11.40
2023-02-22T16:40:34.643Z,11.34
2023-02-22T16:43:04.810Z,11.31
2023-02-22T16:45:32.397Z,11.30
2023-02-22T16:48:00.292Z,11.27
2023-02-22T16:50:27.450Z,11.24
2023-02-22T16:52:58.580Z,11.20
2023-02-22T16:55:26.831Z,11.24
2023-02-22T16:57:56.978Z,11.24
2023-02-22T17:00:34.061Z,11.20
2023-02-22T17:03:05.611Z,11.14
2023-02-22T17:05:37.688Z,11.11
2023-02-22T17:08:04.920Z,11.14
2023-02-22T17:10:32.849Z,11.03
2023-02-22T17:13:12.735Z,10.99
2023-02-22T17:15:48.204Z,10.95
2023-02-22T17:18:17.079Z,11.00
2023-02-22T17:20:45.026Z,10.91
2023-02-22T17:23:12.534Z,10.84
2023-02-22T17:25:44.392Z,10.77
2023-02-22T17:28:12.788Z,10.69
2023-02-22T17:30:41.402Z,10.65
2023-02-22T17:33:10.008Z,10.60
2023-02-22T17:35:39.359Z,10.47
2023-02-22T17:38:06.765Z,10.40
2023-02-22T17:40:36.416Z,10.35
2023-02-22T17:43:04.039Z,10.33
2023-02-22T17:45:31.353Z,10.35
2023-02-22T17:48:01.004Z,10.37
2023-02-22T17:50:28.173Z,10.34
2023-02-22T17:52:54.967Z,10.26
2023-02-22T17:55:22.246Z,10.19
2023-02-22T17:57:58.219Z,10.18
2023-02-22T18:00:34.374Z,10.07
2023-02-22T18:03:04.181Z,10.02
2023-02-22T18:05:35.156Z,10.00
2023-02-22T18:08:01.952Z,9.93
2023-02-22T18:10:28.995Z,9.95
2023-02-22T18:12:56.807Z,9.85
2023-02-22T18:15:28.243Z,9.77
2023-02-22T18:17:56.064Z,9.76
2023-02-22T18:20:38.239Z,9.70
2023-02-22T18:23:10.083Z,9.68
2023-02-22T18:25:38.184Z,9.63
2023-02-22T18:28:06.384Z,9.59
2023-02-22T18:30:35.930Z,9.52
2023-02-22T18:33:04.021Z,9.58
2023-02-22T18:35:31.617Z,9.48
2023-02-22T18:37:58.465Z,9.42
2023-02-22T18:40:25.509Z,9.36
2023-02-22T18:42:52.270Z,9.30
2023-02-22T18:45:20.345Z,9.23
2023-02-22T18:47:47.150Z,9.23
2023-02-22T18:50:17.242Z,9.21
2023-02-22T18:52:45.918Z,9.12
2023-02-22T18:55:18.697Z,9.15
2023-02-22T18:57:47.012Z,9.03
2023-02-22T19:00:23.199Z,8.98
2023-02-22T19:02:50.599Z,8.97
2023-02-22T19:05:17.491Z,8.92
2023-02-22T19:07:45.200Z,8.98
2023-02-22T19:10:12.189Z,8.94
2023-02-22T19:12:39.242Z,8.87
2023-02-22T19:15:06.144Z,8.85
2023-02-22T19:17:36.431Z,8.82
2023-02-22T19:20:09.982Z,8.80
2023-02-22T19:25:08.839Z,8.83
2023-02-22T19:27:36.038Z,8.84
2023-02-22T19:30:04.650Z,8.79
2023-02-22T19:32:33.578Z,8.80
2023-02-22T19:35:06.799Z,8.78
2023-02-22T19:37:35.641Z,8.86
2023-02-22T19:40:06.878Z,8.83
2023-02-22T19:42:33.970Z,8.83
2023-02-22T19:45:01.016Z,8.82
2023-02-22T19:47:28.176Z,8.81
2023-02-22T19:49:57.198Z,8.78
2023-02-22T19:52:28.265Z,8.89
2023-02-22T19:54:55.058Z,8.90
2023-02-22T19:57:24.248Z,8.93
2023-02-22T19:59:51.300Z,8.94
2023-02-22T20:02:18.422Z,8.89
2023-02-22T20:04:45.525Z,8.95
2023-02-22T20:07:12.564Z,8.95
2023-02-22T20:09:40.321Z,8.94
2023-02-22T20:12:08.133Z,8.96
2023-02-22T20:14:35.427Z,8.98
2023-02-22T20:17:04.417Z,8.98
2023-02-22T20:19:31.226Z,8.97
2023-02-22T20:22:00.254Z,8.98
2023-02-22T20:24:27.776Z,8.99
2023-02-22T20:26:57.176Z,9.01
2023-02-22T20:29:29.680Z,9.00
2023-02-22T20:31:58.128Z,8.99
2023-02-22T20:34:26.506Z,8.96
2023-02-22T20:36:53.992Z,8.97
2023-02-22T20:39:20.782Z,8.92
2023-02-22T20:41:48.042Z,8.94
2023-02-22T20:44:17.505Z,8.88
2023-02-22T20:46:45.871Z,8.85
2023-02-22T20:49:18.940Z,8.80
2023-02-22T20:51:48.037Z,8.85
2023-02-22T20:54:16.267Z,8.86
2023-02-22T20:56:45.145Z,8.80
2023-02-22T20:59:14.904Z,8.74
2023-02-22T21:01:42.317Z,8.77
2023-02-22T21:04:11.124Z,8.69
2023-02-22T21:06:39.706Z,8.72
2023-02-22T21:09:08.859Z,8.75
2023-02-22T21:11:36.001Z,8.70
2023-02-22T21:14:03.444Z,8.73
2023-02-22T21:16:35.292Z,8.74
2023-02-22T21:19:04.956Z,8.76
2023-02-22T21:21:32.091Z,8.78
2023-02-22T21:24:02.731Z,8.71
2023-02-22T21:26:33.501Z,8.67
2023-02-22T21:29:04.681Z,8.65
2023-02-22T21:31:34.022Z,8.66
2023-02-22T21:34:01.354Z,8.69
2023-02-22T21:36:28.879Z,8.72
2023-02-22T21:38:57.981Z,8.60
2023-02-22T21:41:28.933Z,8.63
2023-02-22T21:43:58.245Z,8.61
2023-02-22T21:46:29.528Z,8.58
2023-02-22T21:48:58.713Z,8.57
2023-02-22T21:51:31.442Z,8.52
2023-02-22T21:54:03.959Z,8.57
2023-02-22T21:56:35.354Z,8.58
2023-02-22T21:59:06.208Z,8.60
2023-02-22T22:01:36.645Z,8.59
2023-02-22T22:04:04.930Z,8.63
2023-02-22T22:06:34.541Z,8.66
2023-02-22T22:09:04.118Z,8.53
2023-02-22T22:11:31.204Z,8.54
2023-02-22T22:13:59.660Z,8.56
2023-02-22T22:16:29.784Z,8.61
2023-02-22T22:18:57.174Z,8.58
2023-02-22T22:21:24.657Z,8.52
2023-02-22T22:23:55.996Z,8.46
2023-02-22T22:26:25.180Z,8.45
2023-02-22T22:28:56.019Z,8.50
2023-02-22T22:31:26.105Z,8.44
2023-02-22T22:33:54.374Z,8.44
2023-02-22T22:36:22.832Z,8.42
2023-02-22T22:38:52.575Z,8.41
2023-02-22T22:41:21.928Z,8.39
2023-02-22T22:43:48.826Z,8.36
2023-02-22T22:46:17.715Z,8.33
2023-02-22T22:48:47.307Z,8.30
2023-02-22T22:51:18.436Z,8.29
2023-02-22T22:53:47.488Z,8.21
2023-02-22T22:56:29.203Z,8.18
2023-02-22T22:58:58.044Z,8.13
2023-02-22T23:01:34.235Z,8.11
2023-02-22T23:04:04.477Z,8.12
2023-02-22T23:06:34.507Z,8.12
2023-02-22T23:09:11.166Z,8.09
2023-02-22T23:11:44.740Z,8.12
2023-02-22T23:14:22.070Z,8.12
2023-02-22T23:16:51.024Z,8.10
2023-02-22T23:19:19.412Z,7.98
2023-02-22T23:21:48.736Z,7.96
2023-02-22T23:24:19.901Z,8.00
2023-02-22T23:26:50.640Z,7.97
2023-02-22T23:29:20.298Z,7.91
2023-02-22T23:31:48.767Z,7.94
2023-02-22T23:34:24.089Z,7.96
2023-02-22T23:36:54.336Z,7.95
2023-02-22T23:39:22.512Z,7.91
2023-02-22T23:41:51.111Z,7.87
2023-02-22T23:44:17.984Z,7.88
2023-02-22T23:46:48.230Z,7.82
2023-02-22T23:49:20.168Z,7.74
2023-02-22T23:51:47.646Z,7.70
2023-02-22T23:54:19.271Z,7.64
2023-02-22T23:56:56.182Z,7.66
2023-02-22T23:59:25.320Z,7.69
